sensor_id;sensor_type;location;lat;lon;timestamp;temperature;humidity
71668;DHT22;59504;54.806;9.640;2023-06-10T00:01:04;13.30;67.20
71668;DHT22;59504;54.806;9.640;2023-06-10T00:03:25;13.30;67.40
71668;DHT22;59504;54.806;9.640;2023-06-10T00:05:47;13.20;67.80
71668;DHT22;59504;54.806;9.640;2023-06-10T00:08:07;13.30;68.00
71668;DHT22;59504;54.806;9.640;2023-06-10T00:10:28;13.20;67.90
71668;DHT22;59504;54.806;9.640;2023-06-10T00:12:49;13.30;68.00
71668;DHT22;59504;54.806;9.640;2023-06-10T00:15:10;13.30;68.00
71668;DHT22;59504;54.806;9.640;2023-06-10T00:17:31;13.20;68.00
71668;DHT22;59504;54.806;9.640;2023-06-10T00:19:53;13.20;68.40
71668;DHT22;59504;54.806;9.640;2023-06-10T00:22:14;13.30;68.40
71668;DHT22;59504;54.806;9.640;2023-06-10T00:24:34;13.20;69.40
71668;DHT22;59504;54.806;9.640;2023-06-10T00:26:56;13.20;68.80
71668;DHT22;59504;54.806;9.640;2023-06-10T00:29:16;13.20;68.70
71668;DHT22;59504;54.806;9.640;2023-06-10T00:31:37;13.20;68.70
71668;DHT22;59504;54.806;9.640;2023-06-10T00:33:58;13.10;68.70
71668;DHT22;59504;54.806;9.640;2023-06-10T00:36:19;13.30;68.70
71668;DHT22;59504;54.806;9.640;2023-06-10T00:38:40;13.20;68.70
71668;DHT22;59504;54.806;9.640;2023-06-10T00:41:01;13.20;68.60
71668;DHT22;59504;54.806;9.640;2023-06-10T00:43:22;13.20;68.80
71668;DHT22;59504;54.806;9.640;2023-06-10T00:45:43;13.10;68.70
71668;DHT22;59504;54.806;9.640;2023-06-10T00:48:04;13.10;68.70
71668;DHT22;59504;54.806;9.640;2023-06-10T00:50:25;13.10;68.60
71668;DHT22;59504;54.806;9.640;2023-06-10T00:52:46;13.10;68.50
71668;DHT22;59504;54.806;9.640;2023-06-10T00:55:09;13.20;68.40
71668;DHT22;59504;54.806;9.640;2023-06-10T00:57:30;13.10;68.00
71668;DHT22;59504;54.806;9.640;2023-06-10T00:59:50;13.20;67.90
71668;DHT22;59504;54.806;9.640;2023-06-10T01:02:11;13.00;67.70
71668;DHT22;59504;54.806;9.640;2023-06-10T01:04:32;13.10;67.50
71668;DHT22;59504;54.806;9.640;2023-06-10T01:06:54;13.00;67.40
71668;DHT22;59504;54.806;9.640;2023-06-10T01:11:41;13.10;67.90
71668;DHT22;59504;54.806;9.640;2023-06-10T01:14:03;13.00;68.00
71668;DHT22;59504;54.806;9.640;2023-06-10T01:16:25;13.10;67.90
71668;DHT22;59504;54.806;9.640;2023-06-10T01:18:46;13.10;67.50
71668;DHT22;59504;54.806;9.640;2023-06-10T01:21:07;13.10;66.90
71668;DHT22;59504;54.806;9.640;2023-06-10T01:23:29;13.20;66.60
71668;DHT22;59504;54.806;9.640;2023-06-10T01:25:56;13.00;66.50
71668;DHT22;59504;54.806;9.640;2023-06-10T01:33:13;13.20;66.80
71668;DHT22;59504;54.806;9.640;2023-06-10T01:35:36;13.20;66.90
71668;DHT22;59504;54.806;9.640;2023-06-10T01:37:57;13.20;66.70
71668;DHT22;59504;54.806;9.640;2023-06-10T01:40:19;13.20;66.60
71668;DHT22;59504;54.806;9.640;2023-06-10T01:42:40;13.10;66.30
71668;DHT22;59504;54.806;9.640;2023-06-10T01:45:01;13.20;66.20
71668;DHT22;59504;54.806;9.640;2023-06-10T01:47:22;13.20;66.20
71668;DHT22;59504;54.806;9.640;2023-06-10T01:49:43;13.20;66.20
71668;DHT22;59504;54.806;9.640;2023-06-10T01:52:03;13.30;66.20
71668;DHT22;59504;54.806;9.640;2023-06-10T01:54:24;13.20;66.50
71668;DHT22;59504;54.806;9.640;2023-06-10T01:56:45;13.30;66.70
71668;DHT22;59504;54.806;9.640;2023-06-10T01:59:06;13.20;66.60
71668;DHT22;59504;54.806;9.640;2023-06-10T02:01:27;13.10;66.60
71668;DHT22;59504;54.806;9.640;2023-06-10T02:03:48;13.20;66.50
71668;DHT22;59504;54.806;9.640;2023-06-10T02:06:09;13.20;66.50
71668;DHT22;59504;54.806;9.640;2023-06-10T02:08:29;13.20;66.10
71668;DHT22;59504;54.806;9.640;2023-06-10T02:13:05;13.20;65.70
71668;DHT22;59504;54.806;9.640;2023-06-10T02:15:26;13.20;65.50
71668;DHT22;59504;54.806;9.640;2023-06-10T02:17:47;13.20;65.30
71668;DHT22;59504;54.806;9.640;2023-06-10T02:20:09;13.20;65.20
71668;DHT22;59504;54.806;9.640;2023-06-10T02:22:31;13.20;65.00
71668;DHT22;59504;54.806;9.640;2023-06-10T02:24:52;13.20;65.80
71668;DHT22;59504;54.806;9.640;2023-06-10T02:27:13;13.20;65.10
71668;DHT22;59504;54.806;9.640;2023-06-10T02:29:34;13.20;65.20
71668;DHT22;59504;54.806;9.640;2023-06-10T02:31:56;13.30;65.30
71668;DHT22;59504;54.806;9.640;2023-06-10T02:34:17;13.20;65.40
71668;DHT22;59504;54.806;9.640;2023-06-10T02:36:37;13.40;65.80
71668;DHT22;59504;54.806;9.640;2023-06-10T02:38:59;13.30;65.60
71668;DHT22;59504;54.806;9.640;2023-06-10T02:41:19;13.30;66.10
71668;DHT22;59504;54.806;9.640;2023-06-10T02:43:42;13.30;66.10
71668;DHT22;59504;54.806;9.640;2023-06-10T02:46:03;13.30;66.10
71668;DHT22;59504;54.806;9.640;2023-06-10T02:48:24;13.40;66.10
71668;DHT22;59504;54.806;9.640;2023-06-10T02:50:45;13.30;65.80
71668;DHT22;59504;54.806;9.640;2023-06-10T02:53:06;13.40;65.90
71668;DHT22;59504;54.806;9.640;2023-06-10T02:55:27;13.30;65.90
71668;DHT22;59504;54.806;9.640;2023-06-10T02:57:48;13.40;65.80
71668;DHT22;59504;54.806;9.640;2023-06-10T03:00:09;13.40;65.80
71668;DHT22;59504;54.806;9.640;2023-06-10T03:02:31;13.40;66.40
71668;DHT22;59504;54.806;9.640;2023-06-10T03:04:52;13.40;66.60
71668;DHT22;59504;54.806;9.640;2023-06-10T03:07:13;13.40;66.60
71668;DHT22;59504;54.806;9.640;2023-06-10T03:09:35;13.50;66.80
71668;DHT22;59504;54.806;9.640;2023-06-10T03:11:56;13.40;66.80
71668;DHT22;59504;54.806;9.640;2023-06-10T03:14:16;13.40;67.10
71668;DHT22;59504;54.806;9.640;2023-06-10T03:16:37;13.40;67.10
71668;DHT22;59504;54.806;9.640;2023-06-10T03:19:01;13.40;67.50
71668;DHT22;59504;54.806;9.640;2023-06-10T03:21:22;13.40;67.60
71668;DHT22;59504;54.806;9.640;2023-06-10T03:23:42;13.40;68.30
71668;DHT22;59504;54.806;9.640;2023-06-10T03:26:04;13.40;67.50
71668;DHT22;59504;54.806;9.640;2023-06-10T03:28:25;13.40;68.40
71668;DHT22;59504;54.806;9.640;2023-06-10T03:30:46;13.40;67.60
71668;DHT22;59504;54.806;9.640;2023-06-10T03:33:07;13.50;67.60
71668;DHT22;59504;54.806;9.640;2023-06-10T03:35:29;13.40;67.40
71668;DHT22;59504;54.806;9.640;2023-06-10T03:37:50;13.40;67.40
71668;DHT22;59504;54.806;9.640;2023-06-10T03:40:10;13.50;67.30
71668;DHT22;59504;54.806;9.640;2023-06-10T03:42:31;13.40;67.20
71668;DHT22;59504;54.806;9.640;2023-06-10T03:44:52;13.40;67.40
71668;DHT22;59504;54.806;9.640;2023-06-10T03:47:13;13.40;67.60
71668;DHT22;59504;54.806;9.640;2023-06-10T03:49:34;13.50;67.70
71668;DHT22;59504;54.806;9.640;2023-06-10T03:51:57;13.50;67.80
71668;DHT22;59504;54.806;9.640;2023-06-10T03:54:17;13.70;67.70
71668;DHT22;59504;54.806;9.640;2023-06-10T03:56:38;13.70;67.60
71668;DHT22;59504;54.806;9.640;2023-06-10T03:58:59;13.60;67.30
71668;DHT22;59504;54.806;9.640;2023-06-10T04:01:20;13.70;67.40
71668;DHT22;59504;54.806;9.640;2023-06-10T04:03:42;13.70;67.30
71668;DHT22;59504;54.806;9.640;2023-06-10T04:06:04;13.60;66.70
71668;DHT22;59504;54.806;9.640;2023-06-10T04:08:25;13.70;66.80
71668;DHT22;59504;54.806;9.640;2023-06-10T04:10:46;13.70;66.50
71668;DHT22;59504;54.806;9.640;2023-06-10T04:13:07;13.80;66.60
71668;DHT22;59504;54.806;9.640;2023-06-10T04:15:27;13.80;66.90
71668;DHT22;59504;54.806;9.640;2023-06-10T04:17:48;13.90;66.60
71668;DHT22;59504;54.806;9.640;2023-06-10T04:20:09;13.90;66.30
71668;DHT22;59504;54.806;9.640;2023-06-10T04:22:30;14.00;66.40
71668;DHT22;59504;54.806;9.640;2023-06-10T04:24:51;14.10;66.20
71668;DHT22;59504;54.806;9.640;2023-06-10T04:27:12;14.00;65.80
71668;DHT22;59504;54.806;9.640;2023-06-10T04:29:33;14.10;65.50
71668;DHT22;59504;54.806;9.640;2023-06-10T04:31:54;14.20;65.70
71668;DHT22;59504;54.806;9.640;2023-06-10T04:34:14;14.30;65.20
71668;DHT22;59504;54.806;9.640;2023-06-10T04:36:35;14.30;64.80
71668;DHT22;59504;54.806;9.640;2023-06-10T04:38:56;14.30;64.40
71668;DHT22;59504;54.806;9.640;2023-06-10T04:41:17;14.40;63.60
71668;DHT22;59504;54.806;9.640;2023-06-10T04:43:38;14.30;64.20
71668;DHT22;59504;54.806;9.640;2023-06-10T04:45:59;14.30;63.10
71668;DHT22;59504;54.806;9.640;2023-06-10T04:48:20;14.40;63.20
71668;DHT22;59504;54.806;9.640;2023-06-10T04:50:41;14.40;63.20
71668;DHT22;59504;54.806;9.640;2023-06-10T04:53:01;14.40;62.50
71668;DHT22;59504;54.806;9.640;2023-06-10T04:55:22;14.50;62.20
71668;DHT22;59504;54.806;9.640;2023-06-10T04:57:43;14.50;61.70
71668;DHT22;59504;54.806;9.640;2023-06-10T05:00:04;14.60;61.10
71668;DHT22;59504;54.806;9.640;2023-06-10T05:02:26;14.50;61.20
71668;DHT22;59504;54.806;9.640;2023-06-10T05:04:47;14.60;61.20
71668;DHT22;59504;54.806;9.640;2023-06-10T05:07:08;14.60;60.90
71668;DHT22;59504;54.806;9.640;2023-06-10T05:09:29;14.60;60.90
71668;DHT22;59504;54.806;9.640;2023-06-10T05:11:50;14.70;60.80
71668;DHT22;59504;54.806;9.640;2023-06-10T05:14:11;14.70;60.50
71668;DHT22;59504;54.806;9.640;2023-06-10T05:16:32;14.70;60.50
71668;DHT22;59504;54.806;9.640;2023-06-10T05:18:53;14.80;60.80
71668;DHT22;59504;54.806;9.640;2023-06-10T05:21:14;14.70;60.00
71668;DHT22;59504;54.806;9.640;2023-06-10T05:23:36;14.80;60.40
71668;DHT22;59504;54.806;9.640;2023-06-10T05:25:57;14.90;60.60
71668;DHT22;59504;54.806;9.640;2023-06-10T05:28:18;14.90;59.80
71668;DHT22;59504;54.806;9.640;2023-06-10T05:30:40;15.00;59.90
71668;DHT22;59504;54.806;9.640;2023-06-10T05:33:01;14.90;59.80
71668;DHT22;59504;54.806;9.640;2023-06-10T05:35:22;15.00;60.10
71668;DHT22;59504;54.806;9.640;2023-06-10T05:37:42;15.10;60.10
71668;DHT22;59504;54.806;9.640;2023-06-10T05:40:04;15.10;59.70
71668;DHT22;59504;54.806;9.640;2023-06-10T05:42:25;15.10;59.90
71668;DHT22;59504;54.806;9.640;2023-06-10T05:44:46;15.10;59.80
71668;DHT22;59504;54.806;9.640;2023-06-10T05:47:06;15.20;60.10
71668;DHT22;59504;54.806;9.640;2023-06-10T05:49:27;15.20;60.00
71668;DHT22;59504;54.806;9.640;2023-06-10T05:51:48;15.20;59.60
71668;DHT22;59504;54.806;9.640;2023-06-10T05:54:09;15.20;59.80
71668;DHT22;59504;54.806;9.640;2023-06-10T05:56:30;15.20;59.90
71668;DHT22;59504;54.806;9.640;2023-06-10T05:58:51;15.30;60.20
71668;DHT22;59504;54.806;9.640;2023-06-10T06:01:11;15.40;59.90
71668;DHT22;59504;54.806;9.640;2023-06-10T06:03:32;15.40;60.10
71668;DHT22;59504;54.806;9.640;2023-06-10T06:05:53;15.50;60.20
71668;DHT22;59504;54.806;9.640;2023-06-10T06:08:14;15.50;60.30
71668;DHT22;59504;54.806;9.640;2023-06-10T06:10:38;15.50;59.90
71668;DHT22;59504;54.806;9.640;2023-06-10T06:12:58;15.50;59.70
71668;DHT22;59504;54.806;9.640;2023-06-10T06:15:19;15.70;60.10
71668;DHT22;59504;54.806;9.640;2023-06-10T06:17:40;15.70;60.10
71668;DHT22;59504;54.806;9.640;2023-06-10T06:20:01;15.80;59.20
71668;DHT22;59504;54.806;9.640;2023-06-10T06:22:22;15.80;59.50
71668;DHT22;59504;54.806;9.640;2023-06-10T06:24:43;15.80;59.50
71668;DHT22;59504;54.806;9.640;2023-06-10T06:27:04;15.90;59.50
71668;DHT22;59504;54.806;9.640;2023-06-10T06:29:25;15.80;59.50
71668;DHT22;59504;54.806;9.640;2023-06-10T06:31:46;15.90;59.20
71668;DHT22;59504;54.806;9.640;2023-06-10T06:34:07;16.00;59.40
71668;DHT22;59504;54.806;9.640;2023-06-10T06:36:27;16.00;59.20
71668;DHT22;59504;54.806;9.640;2023-06-10T06:38:48;16.10;59.40
71668;DHT22;59504;54.806;9.640;2023-06-10T06:41:09;16.00;59.50
71668;DHT22;59504;54.806;9.640;2023-06-10T06:43:33;16.10;59.50
71668;DHT22;59504;54.806;9.640;2023-06-10T06:45:54;16.00;58.50
71668;DHT22;59504;54.806;9.640;2023-06-10T06:51:05;16.20;59.30
71668;DHT22;59504;54.806;9.640;2023-06-10T06:53:26;16.20;58.80
71668;DHT22;59504;54.806;9.640;2023-06-10T06:58:43;16.30;59.20
71668;DHT22;59504;54.806;9.640;2023-06-10T07:04:16;16.30;58.80
71668;DHT22;59504;54.806;9.640;2023-06-10T07:06:37;16.30;58.60
71668;DHT22;59504;54.806;9.640;2023-06-10T07:08:58;16.40;58.40
71668;DHT22;59504;54.806;9.640;2023-06-10T07:11:19;16.50;58.50
71668;DHT22;59504;54.806;9.640;2023-06-10T07:13:41;16.50;58.50
71668;DHT22;59504;54.806;9.640;2023-06-10T07:16:01;16.30;58.60
71668;DHT22;59504;54.806;9.640;2023-06-10T07:18:22;16.30;58.40
71668;DHT22;59504;54.806;9.640;2023-06-10T07:20:43;16.40;58.20
71668;DHT22;59504;54.806;9.640;2023-06-10T07:23:04;16.40;58.20
71668;DHT22;59504;54.806;9.640;2023-06-10T07:25:25;16.40;57.80
71668;DHT22;59504;54.806;9.640;2023-06-10T07:27:46;16.50;58.00
71668;DHT22;59504;54.806;9.640;2023-06-10T07:30:07;16.50;58.50
71668;DHT22;59504;54.806;9.640;2023-06-10T07:32:28;16.50;58.00
71668;DHT22;59504;54.806;9.640;2023-06-10T07:34:50;16.50;58.00
71668;DHT22;59504;54.806;9.640;2023-06-10T07:37:11;16.50;58.30
71668;DHT22;59504;54.806;9.640;2023-06-10T07:39:32;16.50;58.20
71668;DHT22;59504;54.806;9.640;2023-06-10T07:41:52;16.50;58.20
71668;DHT22;59504;54.806;9.640;2023-06-10T07:44:16;16.50;58.50
71668;DHT22;59504;54.806;9.640;2023-06-10T07:46:37;16.50;58.50
71668;DHT22;59504;54.806;9.640;2023-06-10T07:48:58;16.60;58.80
71668;DHT22;59504;54.806;9.640;2023-06-10T07:51:18;16.60;58.80
71668;DHT22;59504;54.806;9.640;2023-06-10T07:53:39;16.60;58.80
71668;DHT22;59504;54.806;9.640;2023-06-10T07:56:00;16.70;59.10
71668;DHT22;59504;54.806;9.640;2023-06-10T07:58:21;16.70;58.60
71668;DHT22;59504;54.806;9.640;2023-06-10T08:00:42;16.80;58.20
71668;DHT22;59504;54.806;9.640;2023-06-10T08:03:03;16.70;57.90
71668;DHT22;59504;54.806;9.640;2023-06-10T08:05:24;16.80;58.30
71668;DHT22;59504;54.806;9.640;2023-06-10T08:07:45;16.80;58.50
71668;DHT22;59504;54.806;9.640;2023-06-10T08:10:06;16.90;58.40
71668;DHT22;59504;54.806;9.640;2023-06-10T08:12:27;16.90;58.50
71668;DHT22;59504;54.806;9.640;2023-06-10T08:14:48;16.90;58.60
71668;DHT22;59504;54.806;9.640;2023-06-10T08:17:08;16.90;58.00
71668;DHT22;59504;54.806;9.640;2023-06-10T08:19:29;17.00;58.10
71668;DHT22;59504;54.806;9.640;2023-06-10T08:21:51;16.90;57.80
71668;DHT22;59504;54.806;9.640;2023-06-10T08:24:12;17.00;58.20
71668;DHT22;59504;54.806;9.640;2023-06-10T08:26:32;17.10;58.20
71668;DHT22;59504;54.806;9.640;2023-06-10T08:28:53;17.00;58.00
71668;DHT22;59504;54.806;9.640;2023-06-10T08:31:17;17.10;58.20
71668;DHT22;59504;54.806;9.640;2023-06-10T08:33:38;17.10;58.50
71668;DHT22;59504;54.806;9.640;2023-06-10T08:35:59;17.20;59.40
71668;DHT22;59504;54.806;9.640;2023-06-10T08:38:19;17.10;59.00
71668;DHT22;59504;54.806;9.640;2023-06-10T08:40:40;17.10;58.60
71668;DHT22;59504;54.806;9.640;2023-06-10T08:43:08;17.10;58.60
71668;DHT22;59504;54.806;9.640;2023-06-10T08:45:31;17.10;58.00
71668;DHT22;59504;54.806;9.640;2023-06-10T08:47:52;17.20;58.70
71668;DHT22;59504;54.806;9.640;2023-06-10T08:50:14;17.20;58.70
71668;DHT22;59504;54.806;9.640;2023-06-10T08:52:36;17.30;58.30
71668;DHT22;59504;54.806;9.640;2023-06-10T08:55:08;17.30;58.30
71668;DHT22;59504;54.806;9.640;2023-06-10T08:57:31;17.40;58.10
71668;DHT22;59504;54.806;9.640;2023-06-10T08:59:52;17.50;58.20
71668;DHT22;59504;54.806;9.640;2023-06-10T09:02:14;17.50;58.30
71668;DHT22;59504;54.806;9.640;2023-06-10T09:04:35;17.60;58.80
71668;DHT22;59504;54.806;9.640;2023-06-10T09:06:56;17.70;58.50
71668;DHT22;59504;54.806;9.640;2023-06-10T09:09:17;17.80;57.90
71668;DHT22;59504;54.806;9.640;2023-06-10T09:11:39;17.80;57.00
71668;DHT22;59504;54.806;9.640;2023-06-10T09:14:01;17.90;57.30
71668;DHT22;59504;54.806;9.640;2023-06-10T09:16:22;18.00;58.10
71668;DHT22;59504;54.806;9.640;2023-06-10T09:18:42;18.10;57.70
71668;DHT22;59504;54.806;9.640;2023-06-10T09:21:04;18.10;57.80
71668;DHT22;59504;54.806;9.640;2023-06-10T09:23:25;18.00;56.30
71668;DHT22;59504;54.806;9.640;2023-06-10T09:25:45;18.10;56.50
71668;DHT22;59504;54.806;9.640;2023-06-10T09:28:12;18.10;56.80
71668;DHT22;59504;54.806;9.640;2023-06-10T09:30:33;18.20;56.30
71668;DHT22;59504;54.806;9.640;2023-06-10T09:32:55;18.20;56.00
71668;DHT22;59504;54.806;9.640;2023-06-10T09:35:19;18.30;56.90
71668;DHT22;59504;54.806;9.640;2023-06-10T09:37:40;18.40;56.50
71668;DHT22;59504;54.806;9.640;2023-06-10T09:40:04;18.40;56.10
71668;DHT22;59504;54.806;9.640;2023-06-10T09:42:26;18.40;55.70
71668;DHT22;59504;54.806;9.640;2023-06-10T09:44:50;18.50;56.10
71668;DHT22;59504;54.806;9.640;2023-06-10T09:47:12;18.50;56.60
71668;DHT22;59504;54.806;9.640;2023-06-10T09:49:40;18.60;55.90
71668;DHT22;59504;54.806;9.640;2023-06-10T09:52:00;18.70;56.20
71668;DHT22;59504;54.806;9.640;2023-06-10T09:54:25;18.70;55.60
71668;DHT22;59504;54.806;9.640;2023-06-10T09:56:52;18.80;55.30
71668;DHT22;59504;54.806;9.640;2023-06-10T09:59:12;18.90;55.40
71668;DHT22;59504;54.806;9.640;2023-06-10T10:01:34;18.90;55.40
71668;DHT22;59504;54.806;9.640;2023-06-10T10:03:55;18.90;54.30
71668;DHT22;59504;54.806;9.640;2023-06-10T10:06:16;19.00;54.60
71668;DHT22;59504;54.806;9.640;2023-06-10T10:08:37;19.10;54.50
71668;DHT22;59504;54.806;9.640;2023-06-10T10:10:58;19.20;54.40
71668;DHT22;59504;54.806;9.640;2023-06-10T10:13:19;19.20;54.10
71668;DHT22;59504;54.806;9.640;2023-06-10T10:15:40;19.20;53.80
71668;DHT22;59504;54.806;9.640;2023-06-10T10:20:27;19.30;53.20
71668;DHT22;59504;54.806;9.640;2023-06-10T10:22:49;19.20;52.70
71668;DHT22;59504;54.806;9.640;2023-06-10T10:25:10;19.10;52.60
71668;DHT22;59504;54.806;9.640;2023-06-10T10:27:36;19.20;52.50
71668;DHT22;59504;54.806;9.640;2023-06-10T10:29:57;19.20;52.80
71668;DHT22;59504;54.806;9.640;2023-06-10T10:32:18;19.10;52.20
71668;DHT22;59504;54.806;9.640;2023-06-10T10:37:02;19.20;52.20
71668;DHT22;59504;54.806;9.640;2023-06-10T10:39:24;19.20;52.30
71668;DHT22;59504;54.806;9.640;2023-06-10T10:41:45;19.30;52.40
71668;DHT22;59504;54.806;9.640;2023-06-10T10:44:07;19.20;52.10
71668;DHT22;59504;54.806;9.640;2023-06-10T10:46:37;19.30;52.40
71668;DHT22;59504;54.806;9.640;2023-06-10T10:49:02;19.40;52.00
71668;DHT22;59504;54.806;9.640;2023-06-10T10:51:23;19.40;52.20
71668;DHT22;59504;54.806;9.640;2023-06-10T10:53:45;19.40;51.90
71668;DHT22;59504;54.806;9.640;2023-06-10T10:56:26;19.40;50.80
71668;DHT22;59504;54.806;9.640;2023-06-10T10:59:06;19.50;51.50
71668;DHT22;59504;54.806;9.640;2023-06-10T11:01:28;19.50;50.90
71668;DHT22;59504;54.806;9.640;2023-06-10T11:04:00;19.50;50.70
71668;DHT22;59504;54.806;9.640;2023-06-10T11:06:20;19.50;50.10
71668;DHT22;59504;54.806;9.640;2023-06-10T11:11:26;19.50;50.10
71668;DHT22;59504;54.806;9.640;2023-06-10T11:13:59;19.50;49.00
71668;DHT22;59504;54.806;9.640;2023-06-10T11:16:21;19.50;50.60
71668;DHT22;59504;54.806;9.640;2023-06-10T11:18:41;19.40;50.20
71668;DHT22;59504;54.806;9.640;2023-06-10T11:21:03;19.50;50.60
71668;DHT22;59504;54.806;9.640;2023-06-10T11:25:49;19.40;49.60
71668;DHT22;59504;54.806;9.640;2023-06-10T11:28:19;19.50;50.40
71668;DHT22;59504;54.806;9.640;2023-06-10T11:30:40;19.40;50.30
71668;DHT22;59504;54.806;9.640;2023-06-10T11:33:02;19.50;50.70
71668;DHT22;59504;54.806;9.640;2023-06-10T11:35:23;19.30;50.40
71668;DHT22;59504;54.806;9.640;2023-06-10T11:37:44;19.40;50.60
71668;DHT22;59504;54.806;9.640;2023-06-10T11:40:05;19.40;50.40
71668;DHT22;59504;54.806;9.640;2023-06-10T11:42:27;19.20;49.60
71668;DHT22;59504;54.806;9.640;2023-06-10T11:44:52;19.30;50.40
71668;DHT22;59504;54.806;9.640;2023-06-10T11:47:13;19.30;50.50
71668;DHT22;59504;54.806;9.640;2023-06-10T11:49:34;19.30;50.30
71668;DHT22;59504;54.806;9.640;2023-06-10T11:51:55;19.30;51.00
71668;DHT22;59504;54.806;9.640;2023-06-10T11:54:17;19.40;50.80
71668;DHT22;59504;54.806;9.640;2023-06-10T11:56:38;19.40;50.60
71668;DHT22;59504;54.806;9.640;2023-06-10T11:58:59;19.50;51.20
71668;DHT22;59504;54.806;9.640;2023-06-10T12:01:25;19.50;51.50
71668;DHT22;59504;54.806;9.640;2023-06-10T12:03:46;19.60;51.30
71668;DHT22;59504;54.806;9.640;2023-06-10T12:06:07;19.60;51.20
71668;DHT22;59504;54.806;9.640;2023-06-10T12:08:28;19.70;50.40
71668;DHT22;59504;54.806;9.640;2023-06-10T12:10:49;19.60;50.50
71668;DHT22;59504;54.806;9.640;2023-06-10T12:13:10;19.70;50.50
71668;DHT22;59504;54.806;9.640;2023-06-10T12:15:31;19.60;50.10
71668;DHT22;59504;54.806;9.640;2023-06-10T12:17:52;19.60;50.80
71668;DHT22;59504;54.806;9.640;2023-06-10T12:20:27;19.70;50.20
71668;DHT22;59504;54.806;9.640;2023-06-10T12:22:50;19.60;50.40
71668;DHT22;59504;54.806;9.640;2023-06-10T12:25:11;19.60;50.20
71668;DHT22;59504;54.806;9.640;2023-06-10T12:27:33;19.60;50.60
71668;DHT22;59504;54.806;9.640;2023-06-10T12:29:55;19.60;50.60
71668;DHT22;59504;54.806;9.640;2023-06-10T12:32:16;19.60;50.90
71668;DHT22;59504;54.806;9.640;2023-06-10T12:34:39;19.50;50.30
71668;DHT22;59504;54.806;9.640;2023-06-10T12:37:01;19.60;50.20
71668;DHT22;59504;54.806;9.640;2023-06-10T12:39:23;19.70;50.80
71668;DHT22;59504;54.806;9.640;2023-06-10T12:41:47;19.60;50.70
71668;DHT22;59504;54.806;9.640;2023-06-10T12:44:09;19.50;49.90
71668;DHT22;59504;54.806;9.640;2023-06-10T12:46:35;19.60;50.30
71668;DHT22;59504;54.806;9.640;2023-06-10T12:48:56;19.60;50.30
71668;DHT22;59504;54.806;9.640;2023-06-10T12:51:17;19.70;51.00
71668;DHT22;59504;54.806;9.640;2023-06-10T12:53:38;19.70;50.30
71668;DHT22;59504;54.806;9.640;2023-06-10T12:55:59;19.70;50.10
71668;DHT22;59504;54.806;9.640;2023-06-10T12:58:22;19.70;51.00
71668;DHT22;59504;54.806;9.640;2023-06-10T13:00:43;19.80;50.80
71668;DHT22;59504;54.806;9.640;2023-06-10T13:03:05;19.80;50.80
71668;DHT22;59504;54.806;9.640;2023-06-10T13:05:28;19.80;50.50
71668;DHT22;59504;54.806;9.640;2023-06-10T13:07:49;19.70;50.40
71668;DHT22;59504;54.806;9.640;2023-06-10T13:10:10;19.80;50.30
71668;DHT22;59504;54.806;9.640;2023-06-10T13:12:31;19.70;50.10
71668;DHT22;59504;54.806;9.640;2023-06-10T13:14:51;19.70;51.00
71668;DHT22;59504;54.806;9.640;2023-06-10T13:17:21;19.60;50.50
71668;DHT22;59504;54.806;9.640;2023-06-10T13:19:42;19.60;50.50
71668;DHT22;59504;54.806;9.640;2023-06-10T13:22:03;19.60;50.50
71668;DHT22;59504;54.806;9.640;2023-06-10T13:24:24;19.60;51.00
71668;DHT22;59504;54.806;9.640;2023-06-10T13:26:47;19.70;51.40
71668;DHT22;59504;54.806;9.640;2023-06-10T13:29:19;19.60;50.90
71668;DHT22;59504;54.806;9.640;2023-06-10T13:31:58;19.70;51.00
71668;DHT22;59504;54.806;9.640;2023-06-10T13:34:19;19.60;50.80
71668;DHT22;59504;54.806;9.640;2023-06-10T13:36:40;19.70;50.90
71668;DHT22;59504;54.806;9.640;2023-06-10T13:41:40;19.70;51.70
71668;DHT22;59504;54.806;9.640;2023-06-10T13:44:01;19.70;51.30
71668;DHT22;59504;54.806;9.640;2023-06-10T13:46:22;19.60;51.10
71668;DHT22;59504;54.806;9.640;2023-06-10T13:48:43;19.60;51.50
71668;DHT22;59504;54.806;9.640;2023-06-10T13:51:04;19.60;51.80
71668;DHT22;59504;54.806;9.640;2023-06-10T13:53:25;19.60;51.70
71668;DHT22;59504;54.806;9.640;2023-06-10T13:55:45;19.70;51.40
71668;DHT22;59504;54.806;9.640;2023-06-10T13:58:06;19.70;51.50
71668;DHT22;59504;54.806;9.640;2023-06-10T14:00:28;19.70;51.70
71668;DHT22;59504;54.806;9.640;2023-06-10T14:02:48;19.70;51.40
71668;DHT22;59504;54.806;9.640;2023-06-10T14:05:09;19.70;50.40
71668;DHT22;59504;54.806;9.640;2023-06-10T14:07:30;19.80;51.00
71668;DHT22;59504;54.806;9.640;2023-06-10T14:09:51;19.70;50.50
71668;DHT22;59504;54.806;9.640;2023-06-10T14:12:12;19.70;51.10
71668;DHT22;59504;54.806;9.640;2023-06-10T14:14:33;19.50;50.50
71668;DHT22;59504;54.806;9.640;2023-06-10T14:16:54;19.60;51.30
71668;DHT22;59504;54.806;9.640;2023-06-10T14:19:15;19.60;51.00
71668;DHT22;59504;54.806;9.640;2023-06-10T14:21:36;19.60;51.00
71668;DHT22;59504;54.806;9.640;2023-06-10T14:23:57;19.50;50.90
71668;DHT22;59504;54.806;9.640;2023-06-10T14:26:18;19.50;51.20
71668;DHT22;59504;54.806;9.640;2023-06-10T14:28:39;19.50;50.70
71668;DHT22;59504;54.806;9.640;2023-06-10T14:30:59;19.50;51.50
71668;DHT22;59504;54.806;9.640;2023-06-10T14:33:20;19.60;51.70
71668;DHT22;59504;54.806;9.640;2023-06-10T14:35:41;19.60;52.10
71668;DHT22;59504;54.806;9.640;2023-06-10T14:38:03;19.60;51.80
71668;DHT22;59504;54.806;9.640;2023-06-10T14:40:24;19.60;51.90
71668;DHT22;59504;54.806;9.640;2023-06-10T14:42:47;19.60;52.00
71668;DHT22;59504;54.806;9.640;2023-06-10T14:45:08;19.70;52.00
71668;DHT22;59504;54.806;9.640;2023-06-10T14:47:29;19.60;51.90
71668;DHT22;59504;54.806;9.640;2023-06-10T14:49:50;19.60;52.10
71668;DHT22;59504;54.806;9.640;2023-06-10T14:52:11;19.70;52.10
71668;DHT22;59504;54.806;9.640;2023-06-10T14:54:31;19.70;52.40
71668;DHT22;59504;54.806;9.640;2023-06-10T14:56:52;19.70;51.70
71668;DHT22;59504;54.806;9.640;2023-06-10T14:59:13;19.70;51.40
71668;DHT22;59504;54.806;9.640;2023-06-10T15:01:34;19.70;51.70
71668;DHT22;59504;54.806;9.640;2023-06-10T15:03:55;19.70;51.40
71668;DHT22;59504;54.806;9.640;2023-06-10T15:06:16;19.70;51.70
71668;DHT22;59504;54.806;9.640;2023-06-10T15:08:41;19.70;51.60
71668;DHT22;59504;54.806;9.640;2023-06-10T15:11:02;19.60;51.70
71668;DHT22;59504;54.806;9.640;2023-06-10T15:13:23;19.70;51.80
71668;DHT22;59504;54.806;9.640;2023-06-10T15:21:19;19.70;51.50
71668;DHT22;59504;54.806;9.640;2023-06-10T15:23:49;19.70;51.50
71668;DHT22;59504;54.806;9.640;2023-06-10T15:29:17;19.70;51.70
71668;DHT22;59504;54.806;9.640;2023-06-10T15:31:38;19.70;52.00
71668;DHT22;59504;54.806;9.640;2023-06-10T15:33:59;19.70;51.70